Moss, TN

1:48 PM CST on January 31, 2015 (GMT -0600)
On the Square | Change Station
CLOSE
Current Station
Personal Weather Station
Location: Celina, TN
Elevation: 574 ft
Nearby Weather Stations
Active Advisory: Special Statement

Elev 574 ft 36.55 °N, 85.50 °W | Updated 0 second ago

Partly Cloudy
Partly Cloudy
45.8 °F
Feels Like 46 °F
N
0.0
Wind Variable Wind from NNE
Gusts 2.0 mph

Today
High -- | Low -- °F
--% Chance of Precip.
Yesterday
High -- | Low -- °F
Precip. -- in
6:45 AM 5:07 PM
Waxing Gibbous, 91% visible
Pressure 30.33 in
Visibility 10.0 miles
Clouds Scattered Clouds 11000 ft
Windchill 46 °F
Dew Point 15 °F
Humidity 28%
Rainfall 0.00 in
Snow Depth Not available.
UV 3 out of 12
Pollen .30 out of 12
Air Quality Not available.
Flu Activity Not available.
METAR KGLW 311935Z AUTO 25005KT 10SM SCT110 06/M06 A3033 RMK AO2 T00561063

More Conditions Fewer Conditions

Pressure 30.33 in
Visibility 10.0 miles
Clouds Scattered Clouds 11000 ft
Windchill 46 °F
Dew Point 15 °F
Humidity 28%
Rainfall 0.00 in
Snow Depth Not available.
UV 3 out of 12
Pollen .30 out of 12
Air Quality Not available.
Flu Activity Not available.
METAR KGLW 311935Z AUTO 25005KT 10SM SCT110 06/M06 A3033 RMK AO2 T00561063

More Conditions Fewer Conditions

10-Day Weather Forecast

Almanac

Astronomy

Jan. 31, 2015 Rise Set
Actual Time
Civil Twilight
Nautical Twilight
Astronomical Twilight
Moon
Length of Visible Light
Length of Day
Tomorrow will be .
, % of the Moon is Illuminated

Today's Extremes

State Highs State Lows

Community

WunderPhotos

Upload Photos

1,792,157 photos uploaded!

WunderBlogs® & News

Nearby

Air Quality

  Air Quality AQ Index Pollutant
Not available.

Snow Depth

Station Depth Elevation

Earthquake Activity

City Distance Mag. Time & Date
Minimum magnitude displayed is 2.5.

Coastal Water Temperatures

Place Temperature

Nearby Weather Stations